Portada
METAR-TAF:

METAR-TAF

Aeroports :

Foggia, Itàlia

latitud: 41-32N, longitud: 015-43E, altitud: 57 m

Observació

L'informe es va fer fa 1 hora i 17 minuts, a les 08:55 UTC
Vent 6 kt del Oest/Nord-Oest
Temperatura 25°C
Humitat 57%
Pressió 1017 hPa
Visibilitat 10 km o més
Escasses núvols a una alçada de 4500 ft

METAR: LIBA 280855Z 30006KT 9999 FEW045 25/16 Q1017 RMK FEW VIS MIN 9999 WIND THR11 30006KT WIND THR29 /////KT BLU

Hora: 12:12 (10:12 UTC)

Pronòstic

L'informe es va fer fa 2 hores i 12 minuts, a les 08:00 UTC
Pronòstic vàlid del 28 a les 09 UTC al 28 a les 18 UTC
Vent 12 kt del Oest/Nord-Oest
Visibilitat 10 km o més
Escasses núvols a una alçada de 4000 ft
Evolucionant progressivament
l' 28 a les 12 UTC al 28 a les 14 UTC
Vent 15 kt del Est
Visibilitat 10 km o més
Núvols disperses a una alçada de 3000 ft

TAF: LIBA 280800Z 2809/2818 30012KT 9999 FEW040 BECMG 2812/2814 09015KT 9999 SCT030

Observacions i pronòstics meteorològics de més de 4000 aeroports (METAR i TAF).

Les estacions disponibles són els punts grocs i vermells al mapa.

Posi el ratolí al punt desitjat per veure el nom de l'estació.

Feu clic per veure les observacions i els pronòstics meteorològics.

Per canviar el mapa: feu clic els botons verds amb una creu de color negre per apropar; al botó verd amb un guió per allunyar la imatge; o en les fletxes verdes per a mapes adjacents.


METAR-TAF: